createdAt,value
2018-07-31T00:00:20.369Z,979.5
2018-07-31T00:01:21.527Z,979.5
2018-07-31T00:02:22.703Z,979.5
2018-07-31T00:03:23.865Z,979.3
2018-07-31T00:04:25.290Z,979.4
2018-07-31T00:05:27.497Z,979.3
2018-07-31T00:06:28.702Z,979.3
2018-07-31T00:07:37.038Z,979.4
2018-07-31T00:08:38.188Z,979.6
2018-07-31T00:09:42.541Z,979.5
2018-07-31T00:10:43.705Z,979.6
2018-07-31T00:11:44.875Z,979.5
2018-07-31T00:12:46.026Z,979.4
2018-07-31T00:13:47.201Z,979.5
2018-07-31T00:14:48.398Z,979.5
2018-07-31T00:15:49.586Z,979.5
2018-07-31T00:16:50.755Z,979.4
2018-07-31T00:17:51.966Z,979.5
2018-07-31T00:18:58.119Z,979.5
2018-07-31T00:19:59.587Z,979.5
2018-07-31T00:21:00.746Z,979.4
2018-07-31T00:22:02.958Z,979.4
2018-07-31T00:23:04.157Z,979.4
2018-07-31T00:24:05.364Z,979.5
2018-07-31T00:25:06.557Z,979.5
2018-07-31T00:26:07.711Z,979.4
2018-07-31T00:27:13.295Z,979.4
2018-07-31T00:28:14.448Z,979.4
2018-07-31T00:29:15.609Z,979.5
2018-07-31T00:30:17.821Z,979.6
2018-07-31T00:31:19.046Z,979.5
2018-07-31T00:32:20.411Z,979.5
2018-07-31T00:33:21.681Z,979.6
2018-07-31T00:34:22.865Z,979.5
2018-07-31T00:35:24.347Z,979.5
2018-07-31T00:36:25.505Z,979.6
2018-07-31T00:37:26.702Z,979.5
2018-07-31T00:38:29.144Z,979.5
2018-07-31T00:39:30.295Z,979.5
2018-07-31T00:40:31.473Z,979.5
2018-07-31T00:41:32.637Z,979.4
2018-07-31T00:42:33.790Z,979.5
2018-07-31T00:43:34.963Z,979.5
2018-07-31T00:44:36.118Z,979.5
2018-07-31T00:45:37.344Z,979.4
2018-07-31T00:46:38.571Z,979.5
2018-07-31T00:47:39.774Z,979.5
2018-07-31T00:48:40.938Z,979.5
2018-07-31T00:49:42.080Z,979.5
2018-07-31T00:50:43.249Z,979.4
2018-07-31T00:51:45.781Z,979.4
2018-07-31T00:52:50.400Z,979.3
2018-07-31T00:53:51.551Z,979.5
2018-07-31T00:54:52.734Z,979.5
2018-07-31T00:55:53.972Z,979.4
2018-07-31T00:56:55.138Z,979.4
2018-07-31T00:57:56.328Z,979.3
2018-07-31T00:59:00.527Z,979.3
2018-07-31T01:00:01.750Z,979.4
2018-07-31T01:01:02.983Z,979.5
2018-07-31T01:02:04.772Z,979.4
2018-07-31T01:03:06.261Z,979.5
2018-07-31T01:04:07.419Z,979.4
2018-07-31T01:05:08.585Z,979.4
2018-07-31T01:06:09.818Z,979.4
2018-07-31T01:07:11.039Z,979.4
2018-07-31T01:08:12.214Z,979.4
2018-07-31T01:09:13.451Z,979.4
2018-07-31T01:10:14.632Z,979.4
2018-07-31T01:11:15.827Z,979.4
2018-07-31T01:12:16.983Z,979.4
2018-07-31T01:13:18.170Z,979.4
2018-07-31T01:14:19.394Z,979.4
2018-07-31T01:15:20.584Z,979.4
2018-07-31T01:16:22.395Z,979.4
2018-07-31T01:17:23.552Z,979.4
2018-07-31T01:18:24.735Z,979.4
2018-07-31T01:19:25.937Z,979.4
2018-07-31T01:20:27.114Z,979.3
2018-07-31T01:21:28.290Z,979.4
2018-07-31T01:22:29.492Z,979.2
2018-07-31T01:23:30.647Z,979.4
2018-07-31T01:24:31.814Z,979.4
2018-07-31T01:25:33.009Z,979.4
2018-07-31T01:26:34.219Z,979.4
2018-07-31T01:27:35.381Z,979.3
2018-07-31T01:28:37.638Z,979.3
2018-07-31T01:29:38.877Z,979.1
2018-07-31T01:30:43.829Z,979.2
2018-07-31T01:31:45.617Z,979.2
2018-07-31T01:32:46.806Z,979.3
2018-07-31T01:33:50.424Z,979.2
2018-07-31T01:34:51.764Z,979.2
2018-07-31T01:35:52.963Z,979.5
2018-07-31T01:36:54.184Z,979.5
2018-07-31T01:37:55.337Z,979.4
2018-07-31T01:38:56.512Z,979.5
2018-07-31T01:39:57.719Z,979.4
2018-07-31T01:40:58.909Z,979.4
2018-07-31T01:42:02.533Z,979.5
2018-07-31T01:43:03.732Z,979.5
2018-07-31T01:44:04.894Z,979.5
2018-07-31T01:45:06.066Z,979.5
2018-07-31T01:46:07.218Z,979.4
2018-07-31T01:47:08.517Z,979.4
2018-07-31T01:48:11.876Z,979.3
2018-07-31T01:49:13.239Z,979.4
2018-07-31T01:50:14.723Z,979.3
2018-07-31T01:51:16.584Z,979.3
2018-07-31T01:52:17.873Z,979.4
2018-07-31T01:53:21.417Z,979.4
2018-07-31T01:54:22.613Z,979.4
2018-07-31T01:55:23.775Z,979.4
2018-07-31T01:56:24.921Z,979.4
2018-07-31T01:57:26.131Z,979.3
2018-07-31T01:58:27.299Z,979.3
2018-07-31T01:59:28.446Z,979.3
2018-07-31T02:00:29.670Z,979.2
2018-07-31T02:01:31.643Z,979.3
2018-07-31T02:02:33.371Z,979.3
2018-07-31T02:03:34.607Z,979.3
2018-07-31T02:04:35.806Z,979.3
2018-07-31T02:05:36.964Z,979.4
2018-07-31T02:06:38.141Z,979.3
2018-07-31T02:07:39.716Z,979.1
2018-07-31T02:08:40.899Z,979.3
2018-07-31T02:09:42.074Z,979.3
2018-07-31T02:10:43.254Z,979.3
2018-07-31T02:11:44.449Z,979.3
2018-07-31T02:12:45.624Z,979.2
2018-07-31T02:13:46.995Z,979.3
2018-07-31T02:14:48.197Z,979.3
2018-07-31T02:15:49.369Z,979.2
2018-07-31T02:16:50.547Z,979.2
2018-07-31T02:17:51.754Z,979.3
2018-07-31T02:18:52.930Z,979.3
2018-07-31T02:19:54.094Z,979.4
2018-07-31T02:20:55.265Z,979.3
2018-07-31T02:21:56.464Z,979.3
2018-07-31T02:22:58.290Z,979.1
2018-07-31T02:23:59.514Z,979.2
2018-07-31T02:25:00.693Z,979.2
2018-07-31T02:26:01.962Z,979.3
2018-07-31T02:27:03.161Z,979.3
2018-07-31T02:28:04.454Z,979.3
2018-07-31T02:29:05.575Z,979.2
2018-07-31T02:30:06.744Z,979.3
2018-07-31T02:31:07.909Z,979.4
2018-07-31T02:32:09.135Z,979.2
2018-07-31T02:33:10.701Z,979.2
2018-07-31T02:34:11.902Z,979.2
2018-07-31T02:35:13.098Z,979.2
2018-07-31T02:36:14.303Z,979.2
2018-07-31T02:37:15.753Z,979.4
2018-07-31T02:38:16.943Z,979.5
2018-07-31T02:39:18.126Z,979.4
2018-07-31T02:40:19.303Z,979.3
2018-07-31T02:41:20.495Z,979.1
2018-07-31T02:42:21.665Z,979.1
2018-07-31T02:43:22.929Z,979.2
2018-07-31T02:44:24.131Z,979.3
2018-07-31T02:45:25.329Z,979.3
2018-07-31T02:46:26.506Z,979.3
2018-07-31T02:47:27.677Z,979.4
2018-07-31T02:48:28.897Z,979.4
2018-07-31T02:49:30.095Z,979.4
2018-07-31T02:50:31.274Z,979.4
2018-07-31T02:51:32.449Z,979.4
2018-07-31T02:52:33.642Z,979.4
2018-07-31T02:53:34.847Z,979.4
2018-07-31T02:54:38.382Z,979.5
2018-07-31T02:55:39.570Z,979.4
2018-07-31T02:56:40.729Z,979.3
2018-07-31T02:57:41.901Z,979.3
2018-07-31T02:58:43.110Z,979.2
2018-07-31T02:59:44.597Z,979.1
2018-07-31T03:00:48.259Z,979.1
2018-07-31T03:01:49.459Z,979.2
2018-07-31T03:02:51.054Z,979.2
2018-07-31T03:03:52.532Z,979.3
2018-07-31T03:04:53.721Z,979.3
2018-07-31T03:05:54.889Z,979.3
2018-07-31T03:06:56.062Z,979.2
2018-07-31T03:07:57.214Z,979.2
2018-07-31T03:08:58.416Z,979.4
2018-07-31T03:09:59.622Z,979.4
2018-07-31T03:11:03.068Z,979.5
2018-07-31T03:12:04.301Z,979.4
2018-07-31T03:13:05.496Z,979.5
2018-07-31T03:14:06.694Z,979.3
2018-07-31T03:15:07.888Z,979.5
2018-07-31T03:16:09.050Z,979.4
2018-07-31T03:17:10.231Z,979.5
2018-07-31T03:18:11.394Z,979.4
2018-07-31T03:19:15.086Z,979.4
2018-07-31T03:20:16.244Z,979.4
2018-07-31T03:21:17.390Z,979.3
2018-07-31T03:22:18.565Z,979.3
2018-07-31T03:23:19.742Z,979.3
2018-07-31T03:24:20.945Z,979.3
2018-07-31T03:25:22.104Z,979.2
2018-07-31T03:26:23.257Z,979.3
2018-07-31T03:27:24.478Z,979.2
2018-07-31T03:28:25.688Z,979.2
2018-07-31T03:29:26.892Z,979.3
2018-07-31T03:30:28.062Z,979.4
2018-07-31T03:31:29.224Z,979.3
2018-07-31T03:32:30.464Z,979.3
2018-07-31T03:33:31.643Z,979.3
2018-07-31T03:34:33.885Z,979.4
2018-07-31T03:35:35.412Z,979.4
2018-07-31T03:36:36.574Z,979.4
2018-07-31T03:37:37.921Z,979.3
2018-07-31T03:38:39.102Z,979.3
2018-07-31T03:39:40.294Z,979.4
2018-07-31T03:40:41.470Z,979.3
2018-07-31T03:41:42.909Z,979.5
2018-07-31T03:42:44.102Z,979.4
2018-07-31T03:43:45.247Z,979.4
2018-07-31T03:44:46.471Z,979.3
2018-07-31T03:45:47.631Z,979.3
2018-07-31T03:46:48.787Z,979.3
2018-07-31T03:47:50.306Z,979.4
2018-07-31T03:48:51.475Z,979.3
2018-07-31T03:49:52.751Z,979.3
2018-07-31T03:50:53.887Z,979.4
2018-07-31T03:51:55.049Z,979.5
2018-07-31T03:52:56.218Z,979.4
2018-07-31T03:53:57.411Z,979.4
2018-07-31T03:54:58.617Z,979.4
2018-07-31T03:55:59.856Z,979.5
2018-07-31T03:57:01.555Z,979.4
2018-07-31T03:58:02.749Z,979.5
2018-07-31T03:59:03.877Z,979.5
2018-07-31T04:00:05.327Z,979.5
2018-07-31T04:01:06.493Z,979.5
2018-07-31T04:02:07.637Z,979.4
2018-07-31T04:03:10.732Z,979.4
2018-07-31T04:04:11.930Z,979.4
2018-07-31T04:05:13.539Z,979.3
2018-07-31T04:06:15.344Z,979.3
2018-07-31T04:07:16.533Z,979.4
2018-07-31T04:08:17.685Z,979.3
2018-07-31T04:09:18.826Z,979.2
2018-07-31T04:10:20.063Z,979.2
2018-07-31T04:11:21.305Z,979.2
2018-07-31T04:12:22.746Z,979.2
2018-07-31T04:13:23.897Z,979.2
2018-07-31T04:14:25.044Z,979.2
2018-07-31T04:15:26.238Z,979.2
2018-07-31T04:16:27.377Z,979.4
2018-07-31T04:17:28.555Z,979.4
2018-07-31T04:18:29.727Z,979.4
2018-07-31T04:19:30.870Z,979.5
2018-07-31T04:20:32.122Z,979.5
2018-07-31T04:21:33.274Z,979.5
2018-07-31T04:22:34.795Z,979.3
2018-07-31T04:23:35.986Z,979.4
2018-07-31T04:24:37.142Z,979.3
2018-07-31T04:25:38.406Z,979.4
2018-07-31T04:26:39.591Z,979.5
2018-07-31T04:27:40.762Z,979.5
2018-07-31T04:28:41.950Z,979.5
2018-07-31T04:29:43.141Z,979.6
2018-07-31T04:30:44.327Z,979.5
2018-07-31T04:31:46.787Z,979.6
2018-07-31T04:32:47.933Z,979.6
2018-07-31T04:33:49.118Z,979.6
2018-07-31T04:34:50.340Z,979.7
2018-07-31T04:35:52.816Z,979.6
2018-07-31T04:36:54.219Z,979.7
2018-07-31T04:37:55.450Z,979.6
2018-07-31T04:38:56.670Z,979.7
2018-07-31T04:39:57.834Z,979.7
2018-07-31T04:40:59.038Z,979.7
2018-07-31T04:42:03.729Z,979.7
2018-07-31T04:43:04.930Z,979.7
2018-07-31T04:44:06.158Z,979.7
2018-07-31T04:45:07.379Z,979.7
2018-07-31T04:46:08.842Z,979.8
2018-07-31T04:47:10.056Z,979.8
2018-07-31T04:48:13.602Z,979.9
2018-07-31T04:49:14.765Z,980.1
2018-07-31T04:50:17.029Z,980.1
2018-07-31T04:51:20.670Z,980.1
2018-07-31T04:52:21.843Z,980.2
2018-07-31T04:53:23.012Z,980.1
2018-07-31T04:54:24.210Z,980.1
2018-07-31T04:55:25.398Z,980.1
2018-07-31T04:56:26.591Z,980.1
2018-07-31T04:57:28.152Z,980.2
2018-07-31T04:58:29.329Z,980.3
2018-07-31T04:59:30.517Z,980.2
2018-07-31T05:00:31.690Z,980.1
2018-07-31T05:01:32.900Z,980.3
2018-07-31T05:02:34.091Z,980.3
2018-07-31T05:03:35.276Z,980.5
2018-07-31T05:04:36.713Z,980.4
2018-07-31T05:05:37.942Z,980.5
2018-07-31T05:06:39.363Z,980.6
2018-07-31T05:07:40.536Z,980.6
2018-07-31T05:08:46.112Z,980.7
2018-07-31T05:09:47.348Z,980.7
2018-07-31T05:10:48.541Z,980.7
2018-07-31T05:11:49.836Z,980.7
2018-07-31T05:12:51.001Z,980.7
2018-07-31T05:13:52.153Z,980.8
2018-07-31T05:14:53.339Z,980.8
2018-07-31T05:15:54.513Z,980.9
2018-07-31T05:16:55.726Z,980.8
2018-07-31T05:17:57.204Z,980.9
2018-07-31T05:18:58.370Z,980.9
2018-07-31T05:20:00.256Z,981.1
2018-07-31T05:21:01.706Z,981
2018-07-31T05:22:02.994Z,981.1
2018-07-31T05:23:04.166Z,981.1
2018-07-31T05:24:05.361Z,981.1
2018-07-31T05:25:06.611Z,981.1
2018-07-31T05:26:07.812Z,981.1
2018-07-31T05:27:09.038Z,981.2
2018-07-31T05:28:10.464Z,981.2
2018-07-31T05:29:11.650Z,981.3
2018-07-31T05:30:12.815Z,981.3
2018-07-31T05:31:14.260Z,981.3
2018-07-31T05:32:15.460Z,981.2
2018-07-31T05:33:16.632Z,981.1
2018-07-31T05:34:17.830Z,981.1
2018-07-31T05:35:19.073Z,981
2018-07-31T05:36:20.346Z,981.1
2018-07-31T05:37:21.953Z,981.2
2018-07-31T05:38:23.111Z,981.2
2018-07-31T05:39:24.324Z,981
2018-07-31T05:40:25.566Z,981
2018-07-31T05:41:26.812Z,981
2018-07-31T05:42:28.012Z,981.2
2018-07-31T05:43:29.166Z,981.5
2018-07-31T05:44:30.431Z,981.5
2018-07-31T05:45:31.629Z,981.5
2018-07-31T05:46:32.847Z,981.5
2018-07-31T05:47:34.125Z,981.4
2018-07-31T05:48:36.002Z,981.5
2018-07-31T05:49:39.516Z,981.5
2018-07-31T05:50:40.762Z,981.3
2018-07-31T05:51:41.931Z,981.5
2018-07-31T05:52:43.535Z,981.6
2018-07-31T05:53:44.729Z,981.5
2018-07-31T05:54:45.941Z,981.6
2018-07-31T05:55:47.255Z,981.6
2018-07-31T05:56:48.431Z,981.4
2018-07-31T05:57:49.658Z,981.5
2018-07-31T05:58:50.842Z,981.5
2018-07-31T05:59:52.038Z,981.6
2018-07-31T06:00:53.253Z,981.3
2018-07-31T06:01:54.439Z,981.2
2018-07-31T06:02:55.689Z,981.4
2018-07-31T06:03:56.870Z,981.4
2018-07-31T06:05:00.182Z,981.6
2018-07-31T06:06:01.441Z,981.6
2018-07-31T06:07:02.694Z,981.5
2018-07-31T06:08:04.202Z,981.5
2018-07-31T06:09:05.770Z,981.2
2018-07-31T06:10:06.978Z,981.6
2018-07-31T06:11:10.516Z,981.5
2018-07-31T06:12:14.103Z,981.7
2018-07-31T06:13:17.414Z,981.9
2018-07-31T06:14:18.715Z,981.6
2018-07-31T06:15:20.061Z,982.1
2018-07-31T06:16:22.410Z,982.5
2018-07-31T06:17:23.830Z,983.3
2018-07-31T06:18:25.026Z,983.5
2018-07-31T06:19:26.352Z,982.4
2018-07-31T06:20:27.499Z,983.4
2018-07-31T06:21:31.338Z,981.6
2018-07-31T06:22:32.678Z,981.2
2018-07-31T06:23:33.953Z,980.8
2018-07-31T06:24:35.656Z,980.9
2018-07-31T06:25:36.865Z,980.9
2018-07-31T06:26:38.039Z,981.3
2018-07-31T06:27:40.252Z,981.3
2018-07-31T06:28:42.186Z,981.2
2018-07-31T06:29:43.404Z,982.1
2018-07-31T06:30:44.617Z,981.9
2018-07-31T06:31:45.927Z,981.2
2018-07-31T06:32:47.144Z,981.3
2018-07-31T06:33:54.735Z,982.5
2018-07-31T06:34:55.887Z,981.6
2018-07-31T06:36:00.327Z,981.1
2018-07-31T06:37:01.572Z,980.7
2018-07-31T06:38:03.097Z,980.8
2018-07-31T06:39:04.434Z,980.7
2018-07-31T06:40:07.966Z,981.7
2018-07-31T06:41:11.411Z,981.6
2018-07-31T06:42:12.830Z,981.4
2018-07-31T06:43:14.542Z,983.3
2018-07-31T06:44:15.794Z,982.6
2018-07-31T06:45:16.994Z,981.5
2018-07-31T06:46:18.171Z,981.3
2018-07-31T06:47:20.448Z,981.2
2018-07-31T06:48:21.625Z,981.3
2018-07-31T06:49:22.866Z,981.3
2018-07-31T06:50:25.121Z,981.3
2018-07-31T06:51:26.335Z,981.4
2018-07-31T06:52:27.588Z,981.4
2018-07-31T06:53:28.848Z,981.4
2018-07-31T06:54:30.418Z,981.7
2018-07-31T06:55:31.743Z,981.8
2018-07-31T06:56:33.772Z,981.4
2018-07-31T06:57:35.133Z,981.4
2018-07-31T06:58:36.390Z,981.4
2018-07-31T06:59:37.668Z,981.5
2018-07-31T07:00:38.929Z,981.5
2018-07-31T07:01:40.243Z,981.4
2018-07-31T07:02:41.547Z,981.3
2018-07-31T07:03:42.719Z,981.3
2018-07-31T07:04:44.848Z,981.4
2018-07-31T07:05:51.188Z,982.2
2018-07-31T07:06:52.456Z,983.2
2018-07-31T07:07:55.778Z,982.6
2018-07-31T07:08:57.010Z,982.7
2018-07-31T07:09:59.279Z,981.9
2018-07-31T07:11:00.682Z,981.5
2018-07-31T07:12:02.990Z,981.5
2018-07-31T07:13:04.206Z,981.3
2018-07-31T07:14:05.400Z,981.2
2018-07-31T07:15:06.663Z,981.4
2018-07-31T07:16:07.848Z,981.2
2018-07-31T07:17:09.058Z,981.4
2018-07-31T07:18:10.299Z,981.4
2018-07-31T07:19:11.586Z,981.5
2018-07-31T07:20:12.814Z,981.6
2018-07-31T07:21:14.247Z,981.5
2018-07-31T07:22:15.522Z,981.3
2018-07-31T07:23:16.759Z,981.3
2018-07-31T07:24:18.135Z,981.3
2018-07-31T07:25:20.769Z,981.3
2018-07-31T07:26:25.183Z,981.4
2018-07-31T07:27:26.385Z,981.7
2018-07-31T07:28:27.579Z,981.9
2018-07-31T07:29:28.782Z,982
2018-07-31T07:30:32.126Z,981.8
2018-07-31T07:31:33.330Z,981.9
2018-07-31T07:32:34.519Z,982.4
2018-07-31T07:33:35.786Z,982.8
2018-07-31T07:34:36.946Z,983.2
2018-07-31T07:35:39.288Z,981.9
2018-07-31T07:36:40.675Z,983.1
2018-07-31T07:37:42.749Z,981.9
2018-07-31T07:38:44.913Z,981.7
2018-07-31T07:39:47.323Z,981.7
2018-07-31T07:40:48.612Z,983.6
2018-07-31T07:41:52.262Z,983.1
2018-07-31T07:42:53.686Z,984.8
2018-07-31T07:43:54.987Z,982.7
2018-07-31T07:44:57.350Z,981.8
2018-07-31T07:45:59.927Z,981.3
2018-07-31T07:47:01.229Z,981.1
2018-07-31T07:48:02.473Z,981.7
2018-07-31T07:49:03.738Z,981.3
2018-07-31T07:50:05.247Z,981.3
2018-07-31T07:51:06.497Z,981.4
2018-07-31T07:52:07.769Z,981.6
2018-07-31T07:53:08.926Z,981.2
2018-07-31T07:54:10.267Z,980.8
2018-07-31T07:55:12.751Z,981
2018-07-31T07:56:17.392Z,981
2018-07-31T07:57:21.202Z,981.1
2018-07-31T07:58:22.458Z,981.7
2018-07-31T07:59:23.686Z,981.5
2018-07-31T08:00:24.890Z,981.3
2018-07-31T08:01:26.142Z,981.3
2018-07-31T08:02:27.321Z,981.4
2018-07-31T08:03:29.608Z,981.4
2018-07-31T08:04:33.250Z,981.6
2018-07-31T08:05:34.466Z,981.6
2018-07-31T08:06:35.677Z,981.6
2018-07-31T08:07:36.893Z,982.1
2018-07-31T08:08:41.261Z,981.9
2018-07-31T08:09:44.144Z,981.5
2018-07-31T08:10:50.036Z,981.4
2018-07-31T08:11:54.502Z,981.5
2018-07-31T08:12:55.785Z,981.6
2018-07-31T08:14:00.428Z,982
2018-07-31T08:15:01.867Z,981.9
2018-07-31T08:16:03.259Z,981.9
2018-07-31T08:17:04.727Z,982.9
2018-07-31T08:18:09.258Z,982
2018-07-31T08:19:10.465Z,982.2
2018-07-31T08:20:16.607Z,981.9
2018-07-31T08:21:18.077Z,981.5
2018-07-31T08:22:19.381Z,981.3
2018-07-31T08:23:20.737Z,981.4
2018-07-31T08:24:25.117Z,981.6
2018-07-31T08:25:26.366Z,981.3
2018-07-31T08:26:27.942Z,981.2
2018-07-31T08:27:29.249Z,981.6
2018-07-31T08:28:30.714Z,981.8
2018-07-31T08:29:32.236Z,981.6
2018-07-31T08:30:43.599Z,981.6
2018-07-31T08:31:45.809Z,981.4
2018-07-31T08:32:47.045Z,981.4
2018-07-31T08:33:48.246Z,981.2
2018-07-31T08:34:49.501Z,981.4
2018-07-31T08:35:53.611Z,981.4
2018-07-31T08:36:55.167Z,981.4
2018-07-31T08:37:56.450Z,981.2
2018-07-31T08:39:00.374Z,981.2
2018-07-31T08:40:01.682Z,981.1
2018-07-31T08:41:02.874Z,981.5
2018-07-31T08:42:04.073Z,981.6
2018-07-31T08:43:05.533Z,981.4
2018-07-31T08:44:06.847Z,981.6
2018-07-31T08:45:08.338Z,981.5
2018-07-31T08:46:09.525Z,981.5
2018-07-31T08:47:11.433Z,981.3
2018-07-31T08:48:12.687Z,981.3
2018-07-31T08:49:13.949Z,981.5
2018-07-31T08:50:15.274Z,981.5
2018-07-31T08:51:17.868Z,981.5
2018-07-31T08:52:19.367Z,981.3
2018-07-31T08:53:20.577Z,981.4
2018-07-31T08:54:22.132Z,981.3
2018-07-31T08:55:23.440Z,981.1
2018-07-31T08:56:24.644Z,981.3
2018-07-31T08:57:26.134Z,981.3
2018-07-31T08:58:27.415Z,981.2
2018-07-31T08:59:28.642Z,981.2
2018-07-31T09:00:29.907Z,981.2
2018-07-31T09:01:31.270Z,981.4
2018-07-31T09:02:32.587Z,981.3
2018-07-31T09:03:34.143Z,981.3
2018-07-31T09:04:36.394Z,981.1
2018-07-31T09:05:37.610Z,981.1
2018-07-31T09:06:38.821Z,981.2
2018-07-31T09:07:45.214Z,981.2
2018-07-31T09:08:46.488Z,981.2
2018-07-31T09:09:47.631Z,981.3
2018-07-31T09:10:48.830Z,981.7
2018-07-31T09:11:57.715Z,981.5
2018-07-31T09:12:58.894Z,981.1
2018-07-31T09:14:07.744Z,981.9
2018-07-31T09:15:08.970Z,981.2
2018-07-31T09:16:10.735Z,980.9
2018-07-31T09:17:20.986Z,980.8
2018-07-31T09:18:22.366Z,980.9
2018-07-31T09:19:23.637Z,981.1
2018-07-31T09:20:27.382Z,981.2
2018-07-31T09:21:28.689Z,980.8
2018-07-31T09:22:30.606Z,981.2
2018-07-31T09:23:34.390Z,981.1
2018-07-31T09:24:36.084Z,980.9
2018-07-31T09:25:37.196Z,980.8
2018-07-31T09:26:38.514Z,981
2018-07-31T09:27:39.717Z,981.1
2018-07-31T09:28:41.226Z,981.1
2018-07-31T09:29:42.476Z,980.8
2018-07-31T09:30:43.789Z,980.7
2018-07-31T09:31:44.957Z,980.9
2018-07-31T09:32:46.137Z,981.2
2018-07-31T09:33:50.330Z,981.5
2018-07-31T09:34:51.674Z,981
2018-07-31T09:35:52.853Z,980.9
2018-07-31T09:36:54.349Z,981.2
2018-07-31T09:37:55.545Z,981.3
2018-07-31T09:38:56.826Z,981
2018-07-31T09:39:59.131Z,980.9
2018-07-31T09:41:00.528Z,980.8
2018-07-31T09:42:02.356Z,980.7
2018-07-31T09:43:04.008Z,980.7
2018-07-31T09:44:06.406Z,980.9
2018-07-31T09:45:08.427Z,980.8
2018-07-31T09:46:09.642Z,980.6
2018-07-31T09:47:10.889Z,981.1
2018-07-31T09:48:15.198Z,980.7
2018-07-31T09:49:16.429Z,980.9
2018-07-31T09:50:17.670Z,981.1
2018-07-31T09:51:26.459Z,980.9
2018-07-31T09:52:30.109Z,980.7
2018-07-31T09:53:32.296Z,980.7
2018-07-31T09:54:34.883Z,980.7
2018-07-31T09:55:36.123Z,980.9
2018-07-31T09:56:37.593Z,980.6
2018-07-31T09:57:38.996Z,980.4
2018-07-31T09:58:40.262Z,980.6
2018-07-31T09:59:41.526Z,980.9
2018-07-31T10:00:42.843Z,980.7
2018-07-31T10:01:44.108Z,981.1
2018-07-31T10:02:45.304Z,981
2018-07-31T10:03:48.969Z,981.2
2018-07-31T10:04:51.066Z,981.2
2018-07-31T10:05:54.315Z,980.9
2018-07-31T10:06:55.498Z,981
2018-07-31T10:07:56.978Z,980.8
2018-07-31T10:08:58.285Z,980.7
2018-07-31T10:09:59.540Z,980.9
2018-07-31T10:11:07.966Z,981
2018-07-31T10:12:09.697Z,980.9
2018-07-31T10:13:14.842Z,980.8
2018-07-31T10:14:16.039Z,980.6
2018-07-31T10:15:17.598Z,980.8
2018-07-31T10:16:24.427Z,980.9
2018-07-31T10:17:25.724Z,980.9
2018-07-31T10:18:27.670Z,980.8
2018-07-31T10:19:28.903Z,980.5
2018-07-31T10:20:32.360Z,980.5
2018-07-31T10:21:33.633Z,980.4
2018-07-31T10:22:34.849Z,980.7
2018-07-31T10:23:42.316Z,980.4
2018-07-31T10:24:43.546Z,980.6
2018-07-31T10:25:44.788Z,980.7
2018-07-31T10:26:48.219Z,980.7
2018-07-31T10:27:49.813Z,980.5
2018-07-31T10:28:53.377Z,980.5
2018-07-31T10:29:54.744Z,980.5
2018-07-31T10:30:56.002Z,980.6
2018-07-31T10:31:57.231Z,980.7
2018-07-31T10:32:58.553Z,980.5
2018-07-31T10:34:02.386Z,980.4
2018-07-31T10:35:04.549Z,980.6
2018-07-31T10:36:06.355Z,980.8
2018-07-31T10:37:14.177Z,980.8
2018-07-31T10:38:15.455Z,980.3
2018-07-31T10:39:16.682Z,980.5
2018-07-31T10:40:17.878Z,980.9
2018-07-31T10:41:20.489Z,980.9
2018-07-31T10:42:21.919Z,980.9
2018-07-31T10:43:23.157Z,980.9
2018-07-31T10:44:24.354Z,980.8
2018-07-31T10:45:25.607Z,980.9
2018-07-31T10:46:38.939Z,980.8
2018-07-31T10:47:45.199Z,980.9
2018-07-31T10:48:46.585Z,980.8
2018-07-31T10:49:47.865Z,980.9
2018-07-31T10:50:51.324Z,980.8
2018-07-31T10:51:52.578Z,980.7
2018-07-31T10:52:53.870Z,980.6
2018-07-31T10:53:55.190Z,980.8
2018-07-31T10:55:01.391Z,980.8
2018-07-31T10:56:02.598Z,980.8
2018-07-31T10:57:03.835Z,980.8
2018-07-31T10:58:05.417Z,980.7
2018-07-31T10:59:06.577Z,980.9
2018-07-31T11:00:08.220Z,980.8
2018-07-31T11:01:10.287Z,980.7
2018-07-31T11:02:11.761Z,980.8
2018-07-31T11:03:21.427Z,980.8
2018-07-31T11:04:22.834Z,980.8
2018-07-31T11:05:24.242Z,980.7
2018-07-31T11:06:25.441Z,980.8
2018-07-31T11:07:26.642Z,980.9
2018-07-31T11:08:27.895Z,980.9
2018-07-31T11:09:30.270Z,981
2018-07-31T11:10:31.790Z,981.2
2018-07-31T11:11:36.294Z,981.3
2018-07-31T11:12:37.533Z,981.3
2018-07-31T11:13:38.802Z,981.1
2018-07-31T11:14:41.100Z,981.2
2018-07-31T11:15:42.567Z,981.3
2018-07-31T11:16:44.065Z,981.2
2018-07-31T11:17:45.448Z,981.1
2018-07-31T11:18:47.057Z,981.2
2018-07-31T11:19:48.775Z,981.2
2018-07-31T11:20:50.028Z,981.3
2018-07-31T11:21:51.251Z,981.3
2018-07-31T11:22:54.556Z,981.2
2018-07-31T11:23:55.824Z,981.1
2018-07-31T11:25:04.301Z,981.2
2018-07-31T11:26:05.585Z,981.3
2018-07-31T11:27:06.824Z,981.3
2018-07-31T11:28:11.420Z,981.2
2018-07-31T11:29:14.949Z,981.3
2018-07-31T11:30:16.256Z,981.3
2018-07-31T11:31:23.250Z,981.2
2018-07-31T11:32:24.698Z,980.8
2018-07-31T11:33:26.082Z,980.8
2018-07-31T11:34:27.645Z,980.9
2018-07-31T11:35:28.947Z,980.9
2018-07-31T11:36:30.266Z,980.9
2018-07-31T11:37:31.556Z,980.7
2018-07-31T11:38:32.954Z,980.8
2018-07-31T11:39:34.297Z,980.7
2018-07-31T11:40:35.525Z,980.9
2018-07-31T11:41:37.759Z,980.7
2018-07-31T11:42:39.213Z,980.8
2018-07-31T11:43:46.002Z,980.9
2018-07-31T11:44:48.238Z,981
2018-07-31T11:45:49.566Z,981
2018-07-31T11:46:52.112Z,980.9
2018-07-31T11:47:53.463Z,980.9
2018-07-31T11:48:54.950Z,981
2018-07-31T11:49:56.928Z,981.1
2018-07-31T11:50:58.161Z,981
2018-07-31T11:51:59.393Z,981
2018-07-31T11:53:00.682Z,981
2018-07-31T11:54:02.016Z,981.1
2018-07-31T11:55:04.280Z,981
2018-07-31T11:56:05.616Z,980.9
2018-07-31T11:57:06.923Z,980.8
2018-07-31T11:58:08.276Z,980.7
2018-07-31T11:59:09.543Z,980.5
2018-07-31T12:00:15.216Z,980.5
2018-07-31T12:01:16.452Z,980.7
2018-07-31T12:02:22.512Z,980.7
2018-07-31T12:03:23.843Z,980.7
2018-07-31T12:04:25.151Z,980.9
2018-07-31T12:05:26.632Z,980.8
2018-07-31T12:06:28.355Z,980.9
2018-07-31T12:07:29.596Z,981
2018-07-31T12:08:30.891Z,980.8
2018-07-31T12:09:33.087Z,980.9
2018-07-31T12:10:40.334Z,981
2018-07-31T12:11:41.645Z,980.9
2018-07-31T12:12:44.072Z,980.5
2018-07-31T12:13:45.482Z,980.4
2018-07-31T12:14:48.851Z,980.6
2018-07-31T12:15:50.596Z,980.7
2018-07-31T12:16:52.848Z,980.7
2018-07-31T12:17:54.495Z,980.6
2018-07-31T12:18:58.190Z,980.5
2018-07-31T12:20:04.012Z,980.6
2018-07-31T12:21:05.755Z,980.4
2018-07-31T12:22:07.999Z,980.3
2018-07-31T12:23:09.305Z,980.3
2018-07-31T12:24:10.915Z,980.2
2018-07-31T12:25:14.242Z,980.1
2018-07-31T12:26:18.716Z,980.2
2018-07-31T12:27:20.050Z,980.2
2018-07-31T12:28:23.648Z,980.3
2018-07-31T12:29:24.869Z,980.4
2018-07-31T12:31:42.316Z,980.6
2018-07-31T12:32:43.765Z,980.8
2018-07-31T12:33:44.883Z,980.7
2018-07-31T12:34:46.134Z,980.7
2018-07-31T12:35:47.587Z,980.6
2018-07-31T12:36:48.848Z,980.5
2018-07-31T12:37:50.238Z,980.5
2018-07-31T12:38:51.786Z,980.6
2018-07-31T12:39:53.877Z,980.7
2018-07-31T12:40:55.337Z,980.7
2018-07-31T12:41:56.571Z,980.5
2018-07-31T12:42:58.829Z,980.5
2018-07-31T12:44:02.452Z,980.5
2018-07-31T12:45:03.711Z,980.6
2018-07-31T12:46:05.646Z,980.5
2018-07-31T12:47:06.880Z,980.6
2018-07-31T12:48:11.056Z,980.7
2018-07-31T12:49:12.895Z,980.7
2018-07-31T12:50:14.687Z,980.8
2018-07-31T12:52:38.428Z,980.9
2018-07-31T12:53:42.189Z,980.8
2018-07-31T12:54:43.414Z,980.7
2018-07-31T12:55:44.695Z,980.7
2018-07-31T12:56:47.883Z,980.6
2018-07-31T12:57:49.159Z,980.7
2018-07-31T12:58:50.361Z,980.8
2018-07-31T12:59:54.797Z,980.9
2018-07-31T13:00:56.081Z,980.8
2018-07-31T13:01:57.761Z,980.6
2018-07-31T13:02:58.986Z,980.7
2018-07-31T13:04:09.412Z,980.7
2018-07-31T13:05:10.648Z,980.7
2018-07-31T13:06:11.941Z,980.6
2018-07-31T13:07:13.197Z,980.6
2018-07-31T13:08:16.458Z,980.6
2018-07-31T13:09:17.711Z,980.7
2018-07-31T13:10:18.984Z,980.7
2018-07-31T13:11:21.329Z,980.8
2018-07-31T13:12:22.560Z,980.8
2018-07-31T13:13:31.117Z,980.8
2018-07-31T13:14:35.117Z,980.6
2018-07-31T13:15:36.402Z,980.7
2018-07-31T13:16:38.756Z,980.7
2018-07-31T13:17:51.202Z,980.7
2018-07-31T13:18:57.325Z,980.7
2018-07-31T13:20:00.491Z,980.7
2018-07-31T13:21:02.422Z,980.7